This is the latest recevied weather packets stored in our database for station/object KC7KGF. If no packets are shown the sender has not sent any weather packets the latest 10 day(s).
| Time | Temp. | Humidity | Pressure | Rain* | Wind** | Luminosity | Snow |
|---|---|---|---|---|---|---|---|
| 1777842328 | 25° C | 21% | 1018.2 hPa | 0 mm | - | - | - |
| 1777840523 | 23.89° C | 25% | 1018.7 hPa | 0 mm | - | - | - |
| 1777838740 | 24.44° C | 27% | 1018.8 hPa | 0 mm | - | - | - |
| 1777836935 | 23.33° C | 31% | 1019.1 hPa | 0 mm | - | - | - |
| 1777835123 | 23.33° C | 31% | 1019.6 hPa | 0 mm | - | - | - |
| 1777833325 | 21.67° C | 37% | 1020.2 hPa | 0 mm | - | - | - |
| 1777831534 | 20.56° C | 39% | 1020.8 hPa | 0 mm | - | - | - |
| 1777829728 | 20° C | 40% | 1021.2 hPa | 0 mm | - | - | - |
| 1777827927 | 18.89° C | 42% | 1021.2 hPa | 0 mm | - | - | - |
| 1777826142 | 17.78° C | 44% | 1021.5 hPa | 0 mm | - | - | - |
| 1777824340 | 16.67° C | 48% | 1021.5 hPa | 0 mm | - | - | - |
| 1777822535 | 15.56° C | 50% | 1021.4 hPa | 0 mm | - | - | - |
| 1777820725 | 15° C | 51% | 1021.4 hPa | 0 mm | - | - | - |
| 1777818949 | 14.44° C | 52% | 1021.3 hPa | 0 mm | - | - | - |
| 1777817138 | 13.89° C | 54% | 1021.3 hPa | 0 mm | - | - | - |
| 1777815333 | 12.78° C | 56% | 1021.2 hPa | 0 mm | - | - | - |
| 1777813551 | 12.22° C | 57% | 1021.1 hPa | 0 mm | - | - | - |
| 1777811724 | 11.67° C | 60% | 1020.8 hPa | 0 mm | - | - | - |
| 1777809932 | 11.67° C | 60% | 1020.7 hPa | 0 mm | - | - | - |
| 1777808127 | 11.67° C | 58% | 1020.8 hPa | 0 mm | - | - | - |
| 1777806325 | 12.78° C | 57% | 1020.8 hPa | 0 mm | - | - | - |
| 1777804540 | 12.78° C | 56% | 1021 hPa | 0 mm | - | - | - |
| 1777802729 | 12.78° C | 56% | 1021.1 hPa | 0 mm | - | - | - |
| 1777800934 | 12.78° C | 54% | 1021 hPa | 0 mm | - | - | - |
| 1777799142 | 13.33° C | 53% | 1021.5 hPa | 0 mm | - | - | - |
* Rain latest hour (hover to see other rain measurements)
** Current wind speed in m/s (hover to see current wind gust speed)